sensor_id;sensor_type;location;lat;lon;timestamp;temperature;humidity
14749;DHT22;7466;53.574;9.976;2023-04-25T00:01:55;7.70;99.90
14749;DHT22;7466;53.574;9.976;2023-04-25T00:04:23;7.70;99.90
14749;DHT22;7466;53.574;9.976;2023-04-25T00:06:51;7.70;99.90
14749;DHT22;7466;53.574;9.976;2023-04-25T00:09:18;7.70;99.90
14749;DHT22;7466;53.574;9.976;2023-04-25T00:11:47;7.70;99.90
14749;DHT22;7466;53.574;9.976;2023-04-25T00:14:14;7.60;99.90
14749;DHT22;7466;53.574;9.976;2023-04-25T00:16:42;7.60;99.90
14749;DHT22;7466;53.574;9.976;2023-04-25T00:19:09;7.60;99.90
14749;DHT22;7466;53.574;9.976;2023-04-25T00:21:36;7.60;99.90
14749;DHT22;7466;53.574;9.976;2023-04-25T00:24:06;7.60;99.90
14749;DHT22;7466;53.574;9.976;2023-04-25T00:26:33;7.60;99.90
14749;DHT22;7466;53.574;9.976;2023-04-25T00:29:02;7.60;99.90
14749;DHT22;7466;53.574;9.976;2023-04-25T00:31:29;7.60;99.90
14749;DHT22;7466;53.574;9.976;2023-04-25T00:33:56;7.50;99.90
14749;DHT22;7466;53.574;9.976;2023-04-25T00:36:23;7.50;99.90
14749;DHT22;7466;53.574;9.976;2023-04-25T00:38:50;7.50;99.90
14749;DHT22;7466;53.574;9.976;2023-04-25T00:41:17;7.40;99.90
14749;DHT22;7466;53.574;9.976;2023-04-25T00:43:48;7.40;99.90
14749;DHT22;7466;53.574;9.976;2023-04-25T00:46:16;7.40;99.90
14749;DHT22;7466;53.574;9.976;2023-04-25T00:48:48;7.30;99.90
14749;DHT22;7466;53.574;9.976;2023-04-25T00:51:20;7.40;99.90
14749;DHT22;7466;53.574;9.976;2023-04-25T00:53:48;7.30;99.90
14749;DHT22;7466;53.574;9.976;2023-04-25T00:56:16;7.20;99.90
14749;DHT22;7466;53.574;9.976;2023-04-25T00:58:43;7.20;99.90
14749;DHT22;7466;53.574;9.976;2023-04-25T01:01:11;7.20;99.90
14749;DHT22;7466;53.574;9.976;2023-04-25T01:03:39;7.20;99.90
14749;DHT22;7466;53.574;9.976;2023-04-25T01:06:08;7.30;99.90
14749;DHT22;7466;53.574;9.976;2023-04-25T01:08:36;7.30;99.90
14749;DHT22;7466;53.574;9.976;2023-04-25T01:11:03;7.20;99.90
14749;DHT22;7466;53.574;9.976;2023-04-25T01:13:31;7.30;99.90
14749;DHT22;7466;53.574;9.976;2023-04-25T01:15:58;7.20;99.90
14749;DHT22;7466;53.574;9.976;2023-04-25T01:18:25;7.20;99.90
14749;DHT22;7466;53.574;9.976;2023-04-25T01:20:54;7.20;99.90
14749;DHT22;7466;53.574;9.976;2023-04-25T01:23:23;7.20;99.90
14749;DHT22;7466;53.574;9.976;2023-04-25T01:25:50;7.20;99.90
14749;DHT22;7466;53.574;9.976;2023-04-25T01:28:17;7.20;99.90
14749;DHT22;7466;53.574;9.976;2023-04-25T01:30:44;7.20;99.90
14749;DHT22;7466;53.574;9.976;2023-04-25T01:33:12;7.20;99.90
14749;DHT22;7466;53.574;9.976;2023-04-25T01:35:40;7.20;99.90
14749;DHT22;7466;53.574;9.976;2023-04-25T01:38:07;7.10;99.90
14749;DHT22;7466;53.574;9.976;2023-04-25T01:40:39;7.20;99.90
14749;DHT22;7466;53.574;9.976;2023-04-25T01:43:06;7.10;99.90
14749;DHT22;7466;53.574;9.976;2023-04-25T01:45:36;7.10;99.90
14749;DHT22;7466;53.574;9.976;2023-04-25T01:48:05;7.00;99.90
14749;DHT22;7466;53.574;9.976;2023-04-25T01:50:32;7.00;99.90
14749;DHT22;7466;53.574;9.976;2023-04-25T01:52:59;7.00;99.90
14749;DHT22;7466;53.574;9.976;2023-04-25T01:55:27;7.00;99.90
14749;DHT22;7466;53.574;9.976;2023-04-25T01:57:56;6.90;99.90
14749;DHT22;7466;53.574;9.976;2023-04-25T02:00:24;6.90;99.90
14749;DHT22;7466;53.574;9.976;2023-04-25T02:02:51;6.90;99.90
14749;DHT22;7466;53.574;9.976;2023-04-25T02:05:19;6.90;99.90
14749;DHT22;7466;53.574;9.976;2023-04-25T02:07:47;6.90;99.90
14749;DHT22;7466;53.574;9.976;2023-04-25T02:10:14;6.90;99.90
14749;DHT22;7466;53.574;9.976;2023-04-25T02:12:41;6.80;99.90
14749;DHT22;7466;53.574;9.976;2023-04-25T02:15:10;6.90;99.90
14749;DHT22;7466;53.574;9.976;2023-04-25T02:17:37;6.80;99.90
14749;DHT22;7466;53.574;9.976;2023-04-25T02:20:05;6.80;99.90
14749;DHT22;7466;53.574;9.976;2023-04-25T02:22:33;6.80;99.90
14749;DHT22;7466;53.574;9.976;2023-04-25T02:25:01;6.80;99.90
14749;DHT22;7466;53.574;9.976;2023-04-25T02:27:30;6.80;99.90
14749;DHT22;7466;53.574;9.976;2023-04-25T02:29:56;6.70;99.90
14749;DHT22;7466;53.574;9.976;2023-04-25T02:32:25;6.70;99.90
14749;DHT22;7466;53.574;9.976;2023-04-25T02:34:52;6.70;99.90
14749;DHT22;7466;53.574;9.976;2023-04-25T02:37:19;6.70;99.90
14749;DHT22;7466;53.574;9.976;2023-04-25T02:39:46;6.70;99.90
14749;DHT22;7466;53.574;9.976;2023-04-25T02:42:13;6.70;99.90
14749;DHT22;7466;53.574;9.976;2023-04-25T02:44:40;6.70;99.90
14749;DHT22;7466;53.574;9.976;2023-04-25T02:47:07;6.70;99.90
14749;DHT22;7466;53.574;9.976;2023-04-25T02:49:35;6.80;99.90
14749;DHT22;7466;53.574;9.976;2023-04-25T02:52:01;6.70;99.90
14749;DHT22;7466;53.574;9.976;2023-04-25T02:54:28;6.70;99.90
14749;DHT22;7466;53.574;9.976;2023-04-25T02:56:55;6.70;99.90
14749;DHT22;7466;53.574;9.976;2023-04-25T02:59:22;6.70;99.90
14749;DHT22;7466;53.574;9.976;2023-04-25T03:01:49;6.60;99.90
14749;DHT22;7466;53.574;9.976;2023-04-25T03:04:16;6.60;99.90
14749;DHT22;7466;53.574;9.976;2023-04-25T03:06:45;6.60;99.90
14749;DHT22;7466;53.574;9.976;2023-04-25T03:09:12;6.60;99.90
14749;DHT22;7466;53.574;9.976;2023-04-25T03:11:39;6.50;99.90
14749;DHT22;7466;53.574;9.976;2023-04-25T03:14:06;6.50;99.90
14749;DHT22;7466;53.574;9.976;2023-04-25T03:16:33;6.40;99.90
14749;DHT22;7466;53.574;9.976;2023-04-25T03:19:00;6.40;99.90
14749;DHT22;7466;53.574;9.976;2023-04-25T03:21:41;6.40;99.90
14749;DHT22;7466;53.574;9.976;2023-04-25T03:24:09;6.30;99.90
14749;DHT22;7466;53.574;9.976;2023-04-25T03:26:37;6.30;23.30
14749;DHT22;7466;53.574;9.976;2023-04-25T03:29:04;6.20;27.90
14749;DHT22;7466;53.574;9.976;2023-04-25T03:31:31;6.20;27.20
14749;DHT22;7466;53.574;9.976;2023-04-25T03:33:58;6.10;32.40
14749;DHT22;7466;53.574;9.976;2023-04-25T03:36:25;6.10;23.20
14749;DHT22;7466;53.574;9.976;2023-04-25T03:38:51;6.00;31.20
14749;DHT22;7466;53.574;9.976;2023-04-25T03:41:20;6.00;27.20
14749;DHT22;7466;53.574;9.976;2023-04-25T03:43:47;6.00;23.20
14749;DHT22;7466;53.574;9.976;2023-04-25T03:46:14;5.90;25.20
14749;DHT22;7466;53.574;9.976;2023-04-25T03:48:41;5.90;18.30
14749;DHT22;7466;53.574;9.976;2023-04-25T03:51:08;5.90;7.70
14749;DHT22;7466;53.574;9.976;2023-04-25T03:53:34;5.90;15.60
14749;DHT22;7466;53.574;9.976;2023-04-25T03:56:01;5.90;7.00
14749;DHT22;7466;53.574;9.976;2023-04-25T03:58:29;6.00;11.60
14749;DHT22;7466;53.574;9.976;2023-04-25T04:00:56;5.90;1.00
14749;DHT22;7466;53.574;9.976;2023-04-25T04:03:23;5.90;4.00
14749;DHT22;7466;53.574;9.976;2023-04-25T04:05:50;5.90;1.00
14749;DHT22;7466;53.574;9.976;2023-04-25T04:08:17;5.90;1.00
14749;DHT22;7466;53.574;9.976;2023-04-25T04:10:45;5.90;1.00
14749;DHT22;7466;53.574;9.976;2023-04-25T04:13:12;5.90;1.00
14749;DHT22;7466;53.574;9.976;2023-04-25T04:15:40;5.80;1.00
14749;DHT22;7466;53.574;9.976;2023-04-25T04:18:07;5.80;1.00
14749;DHT22;7466;53.574;9.976;2023-04-25T04:20:34;5.70;1.00
14749;DHT22;7466;53.574;9.976;2023-04-25T04:23:01;5.70;1.00
14749;DHT22;7466;53.574;9.976;2023-04-25T04:25:28;5.70;1.00
14749;DHT22;7466;53.574;9.976;2023-04-25T04:27:55;5.70;1.00
14749;DHT22;7466;53.574;9.976;2023-04-25T04:30:23;5.70;1.00
14749;DHT22;7466;53.574;9.976;2023-04-25T04:32:52;5.70;1.00
14749;DHT22;7466;53.574;9.976;2023-04-25T04:35:19;5.60;1.00
14749;DHT22;7466;53.574;9.976;2023-04-25T04:37:46;5.60;1.00
14749;DHT22;7466;53.574;9.976;2023-04-25T04:40:13;5.60;1.00
14749;DHT22;7466;53.574;9.976;2023-04-25T04:42:41;5.70;1.00
14749;DHT22;7466;53.574;9.976;2023-04-25T04:45:09;5.80;1.00
14749;DHT22;7466;53.574;9.976;2023-04-25T04:47:36;5.80;1.00
14749;DHT22;7466;53.574;9.976;2023-04-25T04:50:07;5.80;1.00
14749;DHT22;7466;53.574;9.976;2023-04-25T04:52:35;5.90;1.00
14749;DHT22;7466;53.574;9.976;2023-04-25T04:55:02;5.90;1.00
14749;DHT22;7466;53.574;9.976;2023-04-25T04:57:30;6.00;1.00
14749;DHT22;7466;53.574;9.976;2023-04-25T04:59:58;6.00;1.00
14749;DHT22;7466;53.574;9.976;2023-04-25T05:02:26;6.10;1.00
14749;DHT22;7466;53.574;9.976;2023-04-25T05:04:52;6.10;1.00
14749;DHT22;7466;53.574;9.976;2023-04-25T05:07:21;6.10;1.00
14749;DHT22;7466;53.574;9.976;2023-04-25T05:09:48;6.20;1.00
14749;DHT22;7466;53.574;9.976;2023-04-25T05:12:15;6.20;1.00
14749;DHT22;7466;53.574;9.976;2023-04-25T05:14:42;6.20;1.00
14749;DHT22;7466;53.574;9.976;2023-04-25T05:17:09;6.20;1.00
14749;DHT22;7466;53.574;9.976;2023-04-25T05:19:36;6.30;1.00
14749;DHT22;7466;53.574;9.976;2023-04-25T05:22:04;6.20;1.00
14749;DHT22;7466;53.574;9.976;2023-04-25T05:24:33;6.20;1.00
14749;DHT22;7466;53.574;9.976;2023-04-25T05:27:00;6.10;1.00
14749;DHT22;7466;53.574;9.976;2023-04-25T05:29:27;6.20;1.00
14749;DHT22;7466;53.574;9.976;2023-04-25T05:31:53;6.20;1.00
14749;DHT22;7466;53.574;9.976;2023-04-25T05:34:21;6.20;1.00
14749;DHT22;7466;53.574;9.976;2023-04-25T05:36:48;6.20;1.00
14749;DHT22;7466;53.574;9.976;2023-04-25T05:39:15;6.20;1.00
14749;DHT22;7466;53.574;9.976;2023-04-25T05:41:43;6.20;1.00
14749;DHT22;7466;53.574;9.976;2023-04-25T05:44:11;6.10;1.00
14749;DHT22;7466;53.574;9.976;2023-04-25T05:46:38;6.20;1.00
14749;DHT22;7466;53.574;9.976;2023-04-25T05:49:05;6.20;1.00
14749;DHT22;7466;53.574;9.976;2023-04-25T05:51:32;6.20;1.00
14749;DHT22;7466;53.574;9.976;2023-04-25T05:54:05;6.20;1.00
14749;DHT22;7466;53.574;9.976;2023-04-25T05:56:32;6.30;1.00
14749;DHT22;7466;53.574;9.976;2023-04-25T05:59:00;6.40;1.00
14749;DHT22;7466;53.574;9.976;2023-04-25T06:01:28;6.40;1.00
14749;DHT22;7466;53.574;9.976;2023-04-25T06:03:56;6.40;1.00
14749;DHT22;7466;53.574;9.976;2023-04-25T06:06:23;6.40;1.00
14749;DHT22;7466;53.574;9.976;2023-04-25T06:08:51;6.40;1.00
14749;DHT22;7466;53.574;9.976;2023-04-25T06:11:18;6.50;1.00
14749;DHT22;7466;53.574;9.976;2023-04-25T06:13:45;6.70;1.00
14749;DHT22;7466;53.574;9.976;2023-04-25T06:16:14;6.70;1.00
14749;DHT22;7466;53.574;9.976;2023-04-25T06:18:41;6.90;1.00
14749;DHT22;7466;53.574;9.976;2023-04-25T06:21:07;6.80;1.00
14749;DHT22;7466;53.574;9.976;2023-04-25T06:23:35;6.80;1.00
14749;DHT22;7466;53.574;9.976;2023-04-25T06:26:02;6.80;1.00
14749;DHT22;7466;53.574;9.976;2023-04-25T06:28:29;6.70;1.00
14749;DHT22;7466;53.574;9.976;2023-04-25T06:30:56;6.80;1.00
14749;DHT22;7466;53.574;9.976;2023-04-25T06:33:25;6.90;1.00
14749;DHT22;7466;53.574;9.976;2023-04-25T06:35:52;6.80;1.00
14749;DHT22;7466;53.574;9.976;2023-04-25T06:38:19;6.70;1.00
14749;DHT22;7466;53.574;9.976;2023-04-25T06:40:46;6.60;1.00
14749;DHT22;7466;53.574;9.976;2023-04-25T06:43:13;6.70;1.00
14749;DHT22;7466;53.574;9.976;2023-04-25T06:45:40;6.70;1.00
14749;DHT22;7466;53.574;9.976;2023-04-25T06:48:07;6.80;1.00
14749;DHT22;7466;53.574;9.976;2023-04-25T06:50:36;6.70;1.00
14749;DHT22;7466;53.574;9.976;2023-04-25T06:53:03;6.80;1.00
14749;DHT22;7466;53.574;9.976;2023-04-25T06:55:30;6.90;1.00
14749;DHT22;7466;53.574;9.976;2023-04-25T06:57:57;6.90;1.00
14749;DHT22;7466;53.574;9.976;2023-04-25T07:00:24;6.90;1.00
14749;DHT22;7466;53.574;9.976;2023-04-25T07:02:51;7.00;1.00
14749;DHT22;7466;53.574;9.976;2023-04-25T07:05:18;7.10;1.00
14749;DHT22;7466;53.574;9.976;2023-04-25T07:07:46;7.30;1.00
14749;DHT22;7466;53.574;9.976;2023-04-25T07:10:13;7.30;1.00
14749;DHT22;7466;53.574;9.976;2023-04-25T07:12:40;7.40;1.00
14749;DHT22;7466;53.574;9.976;2023-04-25T07:15:08;7.50;1.00
14749;DHT22;7466;53.574;9.976;2023-04-25T07:17:36;7.70;1.00
14749;DHT22;7466;53.574;9.976;2023-04-25T07:20:03;7.60;1.00
14749;DHT22;7466;53.574;9.976;2023-04-25T07:22:31;7.50;1.00
14749;DHT22;7466;53.574;9.976;2023-04-25T07:24:59;7.30;1.00
14749;DHT22;7466;53.574;9.976;2023-04-25T07:27:26;7.50;1.00
14749;DHT22;7466;53.574;9.976;2023-04-25T07:29:55;7.60;1.00
14749;DHT22;7466;53.574;9.976;2023-04-25T07:32:22;7.70;1.00
14749;DHT22;7466;53.574;9.976;2023-04-25T07:34:48;7.50;1.00
14749;DHT22;7466;53.574;9.976;2023-04-25T07:37:16;7.40;1.00
14749;DHT22;7466;53.574;9.976;2023-04-25T07:39:46;7.60;1.00
14749;DHT22;7466;53.574;9.976;2023-04-25T07:42:15;7.70;1.00
14749;DHT22;7466;53.574;9.976;2023-04-25T07:44:42;7.60;1.00
14749;DHT22;7466;53.574;9.976;2023-04-25T07:47:09;7.60;1.00
14749;DHT22;7466;53.574;9.976;2023-04-25T07:49:37;7.90;1.00
14749;DHT22;7466;53.574;9.976;2023-04-25T07:52:05;8.00;1.00
14749;DHT22;7466;53.574;9.976;2023-04-25T07:54:38;8.00;1.00
14749;DHT22;7466;53.574;9.976;2023-04-25T07:57:08;7.80;1.00
14749;DHT22;7466;53.574;9.976;2023-04-25T07:59:36;7.70;1.00
14749;DHT22;7466;53.574;9.976;2023-04-25T08:02:03;8.00;1.00
14749;DHT22;7466;53.574;9.976;2023-04-25T08:04:30;8.10;1.00
14749;DHT22;7466;53.574;9.976;2023-04-25T08:06:57;8.00;1.00
14749;DHT22;7466;53.574;9.976;2023-04-25T08:09:24;8.20;1.00
14749;DHT22;7466;53.574;9.976;2023-04-25T08:11:51;8.30;1.00
14749;DHT22;7466;53.574;9.976;2023-04-25T08:14:18;8.10;1.00
14749;DHT22;7466;53.574;9.976;2023-04-25T08:16:46;8.20;1.00
14749;DHT22;7466;53.574;9.976;2023-04-25T08:19:13;8.20;1.00
14749;DHT22;7466;53.574;9.976;2023-04-25T08:21:47;8.30;1.00
14749;DHT22;7466;53.574;9.976;2023-04-25T08:24:16;8.30;1.00
14749;DHT22;7466;53.574;9.976;2023-04-25T08:26:43;8.30;1.00
14749;DHT22;7466;53.574;9.976;2023-04-25T08:29:09;8.30;1.00
14749;DHT22;7466;53.574;9.976;2023-04-25T08:31:37;8.30;1.00
14749;DHT22;7466;53.574;9.976;2023-04-25T08:34:05;8.60;1.00
14749;DHT22;7466;53.574;9.976;2023-04-25T08:36:33;8.80;99.90
14749;DHT22;7466;53.574;9.976;2023-04-25T08:39:00;8.70;99.90
14749;DHT22;7466;53.574;9.976;2023-04-25T08:41:27;8.60;99.90
14749;DHT22;7466;53.574;9.976;2023-04-25T08:43:56;8.60;99.90
14749;DHT22;7466;53.574;9.976;2023-04-25T08:46:24;8.50;99.90
14749;DHT22;7466;53.574;9.976;2023-04-25T08:48:53;8.50;99.90
14749;DHT22;7466;53.574;9.976;2023-04-25T08:51:32;8.60;99.90
14749;DHT22;7466;53.574;9.976;2023-04-25T08:54:07;8.80;99.90
14749;DHT22;7466;53.574;9.976;2023-04-25T08:56:35;8.90;99.90
14749;DHT22;7466;53.574;9.976;2023-04-25T08:59:02;8.80;99.90
14749;DHT22;7466;53.574;9.976;2023-04-25T09:01:29;8.80;99.90
14749;DHT22;7466;53.574;9.976;2023-04-25T09:03:57;8.40;99.90
14749;DHT22;7466;53.574;9.976;2023-04-25T09:06:24;8.50;99.90
14749;DHT22;7466;53.574;9.976;2023-04-25T09:08:53;8.90;99.90
14749;DHT22;7466;53.574;9.976;2023-04-25T09:11:20;9.10;99.90
14749;DHT22;7466;53.574;9.976;2023-04-25T09:13:46;8.80;99.90
14749;DHT22;7466;53.574;9.976;2023-04-25T09:16:14;8.80;99.90
14749;DHT22;7466;53.574;9.976;2023-04-25T09:18:42;8.40;99.90
14749;DHT22;7466;53.574;9.976;2023-04-25T09:21:11;8.30;99.90
14749;DHT22;7466;53.574;9.976;2023-04-25T09:23:46;8.40;99.90
14749;DHT22;7466;53.574;9.976;2023-04-25T09:26:16;8.60;99.90
14749;DHT22;7466;53.574;9.976;2023-04-25T09:28:44;8.80;99.90
14749;DHT22;7466;53.574;9.976;2023-04-25T09:31:11;8.60;99.90
14749;DHT22;7466;53.574;9.976;2023-04-25T09:33:46;8.80;99.90
14749;DHT22;7466;53.574;9.976;2023-04-25T09:36:13;9.30;99.90
14749;DHT22;7466;53.574;9.976;2023-04-25T09:38:43;9.50;99.90
14749;DHT22;7466;53.574;9.976;2023-04-25T09:41:11;9.30;99.90
14749;DHT22;7466;53.574;9.976;2023-04-25T09:43:40;8.40;99.90
14749;DHT22;7466;53.574;9.976;2023-04-25T09:46:11;8.00;99.90
14749;DHT22;7466;53.574;9.976;2023-04-25T09:48:39;8.00;99.90
14749;DHT22;7466;53.574;9.976;2023-04-25T09:51:09;7.90;99.90
14749;DHT22;7466;53.574;9.976;2023-04-25T09:53:37;8.20;99.90
14749;DHT22;7466;53.574;9.976;2023-04-25T09:56:07;8.50;99.90
14749;DHT22;7466;53.574;9.976;2023-04-25T09:58:36;8.60;99.90
14749;DHT22;7466;53.574;9.976;2023-04-25T10:01:05;8.70;99.90
14749;DHT22;7466;53.574;9.976;2023-04-25T10:03:34;9.00;99.90
14749;DHT22;7466;53.574;9.976;2023-04-25T10:06:04;8.80;99.90
14749;DHT22;7466;53.574;9.976;2023-04-25T10:08:35;8.80;99.90
14749;DHT22;7466;53.574;9.976;2023-04-25T10:11:04;9.10;99.90
14749;DHT22;7466;53.574;9.976;2023-04-25T10:13:32;9.60;99.90
14749;DHT22;7466;53.574;9.976;2023-04-25T10:16:01;10.30;99.90
14749;DHT22;7466;53.574;9.976;2023-04-25T10:18:31;10.90;99.90
14749;DHT22;7466;53.574;9.976;2023-04-25T10:21:04;11.20;99.90
14749;DHT22;7466;53.574;9.976;2023-04-25T10:23:36;10.60;99.90
14749;DHT22;7466;53.574;9.976;2023-04-25T10:26:04;10.30;99.90
14749;DHT22;7466;53.574;9.976;2023-04-25T10:28:56;9.80;99.90
14749;DHT22;7466;53.574;9.976;2023-04-25T10:31:34;10.20;99.90
14749;DHT22;7466;53.574;9.976;2023-04-25T10:34:13;10.50;99.90
14749;DHT22;7466;53.574;9.976;2023-04-25T10:36:40;11.10;99.90
14749;DHT22;7466;53.574;9.976;2023-04-25T10:39:07;11.20;99.90
14749;DHT22;7466;53.574;9.976;2023-04-25T10:41:46;11.20;99.90
14749;DHT22;7466;53.574;9.976;2023-04-25T10:44:14;10.90;99.90
14749;DHT22;7466;53.574;9.976;2023-04-25T10:46:41;10.30;99.90
14749;DHT22;7466;53.574;9.976;2023-04-25T10:49:10;10.60;99.90
14749;DHT22;7466;53.574;9.976;2023-04-25T10:51:47;11.30;99.90
14749;DHT22;7466;53.574;9.976;2023-04-25T10:54:17;11.30;99.90
14749;DHT22;7466;53.574;9.976;2023-04-25T10:56:45;11.50;99.90
14749;DHT22;7466;53.574;9.976;2023-04-25T10:59:13;11.10;99.90
14749;DHT22;7466;53.574;9.976;2023-04-25T11:01:43;10.90;99.90
14749;DHT22;7466;53.574;9.976;2023-04-25T11:04:20;10.40;99.90
14749;DHT22;7466;53.574;9.976;2023-04-25T11:06:59;9.80;99.90
14749;DHT22;7466;53.574;9.976;2023-04-25T11:09:27;9.70;99.90
14749;DHT22;7466;53.574;9.976;2023-04-25T11:11:55;9.90;99.90
14749;DHT22;7466;53.574;9.976;2023-04-25T11:14:22;10.00;99.90
14749;DHT22;7466;53.574;9.976;2023-04-25T11:16:53;10.10;99.90
14749;DHT22;7466;53.574;9.976;2023-04-25T11:19:21;10.40;99.90
14749;DHT22;7466;53.574;9.976;2023-04-25T11:21:48;10.60;99.90
14749;DHT22;7466;53.574;9.976;2023-04-25T11:24:16;10.40;99.90
14749;DHT22;7466;53.574;9.976;2023-04-25T11:26:43;10.30;99.90
14749;DHT22;7466;53.574;9.976;2023-04-25T11:29:13;10.50;99.90
14749;DHT22;7466;53.574;9.976;2023-04-25T11:31:43;10.40;99.90
14749;DHT22;7466;53.574;9.976;2023-04-25T11:34:10;10.80;99.90
14749;DHT22;7466;53.574;9.976;2023-04-25T11:36:38;10.70;99.90
14749;DHT22;7466;53.574;9.976;2023-04-25T11:39:05;9.80;99.90
14749;DHT22;7466;53.574;9.976;2023-04-25T11:41:33;9.70;99.90
14749;DHT22;7466;53.574;9.976;2023-04-25T11:44:00;9.40;99.90
14749;DHT22;7466;53.574;9.976;2023-04-25T11:46:27;8.70;99.90
14749;DHT22;7466;53.574;9.976;2023-04-25T11:48:56;8.70;99.90
14749;DHT22;7466;53.574;9.976;2023-04-25T11:51:23;9.60;99.90
14749;DHT22;7466;53.574;9.976;2023-04-25T11:53:50;9.80;99.90
14749;DHT22;7466;53.574;9.976;2023-04-25T11:56:17;10.40;99.90
14749;DHT22;7466;53.574;9.976;2023-04-25T11:58:59;10.60;99.90
14749;DHT22;7466;53.574;9.976;2023-04-25T12:01:28;11.00;99.90
14749;DHT22;7466;53.574;9.976;2023-04-25T12:03:55;11.30;99.90
14749;DHT22;7466;53.574;9.976;2023-04-25T12:06:26;12.10;99.90
14749;DHT22;7466;53.574;9.976;2023-04-25T12:09:03;12.60;99.90
14749;DHT22;7466;53.574;9.976;2023-04-25T12:11:31;12.20;99.90
14749;DHT22;7466;53.574;9.976;2023-04-25T12:14:03;11.70;99.90
14749;DHT22;7466;53.574;9.976;2023-04-25T12:16:40;11.30;99.90
14749;DHT22;7466;53.574;9.976;2023-04-25T12:19:08;11.40;99.90
14749;DHT22;7466;53.574;9.976;2023-04-25T12:21:34;11.30;99.90
14749;DHT22;7466;53.574;9.976;2023-04-25T12:24:12;11.20;99.90
14749;DHT22;7466;53.574;9.976;2023-04-25T12:26:47;11.20;99.90
14749;DHT22;7466;53.574;9.976;2023-04-25T12:29:21;11.30;99.90
14749;DHT22;7466;53.574;9.976;2023-04-25T12:31:49;12.10;99.90
14749;DHT22;7466;53.574;9.976;2023-04-25T12:34:16;12.90;99.90
14749;DHT22;7466;53.574;9.976;2023-04-25T12:36:43;13.80;96.70
14749;DHT22;7466;53.574;9.976;2023-04-25T12:39:14;14.20;94.10
14749;DHT22;7466;53.574;9.976;2023-04-25T12:41:41;14.30;93.10
14749;DHT22;7466;53.574;9.976;2023-04-25T12:44:08;13.60;93.20
14749;DHT22;7466;53.574;9.976;2023-04-25T12:46:37;12.80;95.20
14749;DHT22;7466;53.574;9.976;2023-04-25T12:49:04;12.30;94.60
14749;DHT22;7466;53.574;9.976;2023-04-25T12:51:34;12.40;95.70
14749;DHT22;7466;53.574;9.976;2023-04-25T12:54:01;11.70;98.60
14749;DHT22;7466;53.574;9.976;2023-04-25T12:56:28;11.80;99.90
14749;DHT22;7466;53.574;9.976;2023-04-25T12:58:55;11.60;99.90
14749;DHT22;7466;53.574;9.976;2023-04-25T13:01:23;12.10;99.90
14749;DHT22;7466;53.574;9.976;2023-04-25T13:03:51;12.60;99.90
14749;DHT22;7466;53.574;9.976;2023-04-25T13:06:20;13.80;99.40
14749;DHT22;7466;53.574;9.976;2023-04-25T13:08:46;14.90;93.20
14749;DHT22;7466;53.574;9.976;2023-04-25T13:11:14;14.80;91.70
14749;DHT22;7466;53.574;9.976;2023-04-25T13:13:41;14.00;91.50
14749;DHT22;7466;53.574;9.976;2023-04-25T13:16:09;12.80;98.20
14749;DHT22;7466;53.574;9.976;2023-04-25T13:18:37;12.20;99.90
14749;DHT22;7466;53.574;9.976;2023-04-25T13:21:05;11.30;99.90
14749;DHT22;7466;53.574;9.976;2023-04-25T13:23:35;9.80;99.90
14749;DHT22;7466;53.574;9.976;2023-04-25T13:26:03;9.40;99.90
14749;DHT22;7466;53.574;9.976;2023-04-25T13:28:30;8.60;99.90
14749;DHT22;7466;53.574;9.976;2023-04-25T13:30:57;8.50;99.90
14749;DHT22;7466;53.574;9.976;2023-04-25T13:33:24;8.60;99.90
14749;DHT22;7466;53.574;9.976;2023-04-25T13:35:52;8.90;99.90
14749;DHT22;7466;53.574;9.976;2023-04-25T13:38:23;9.60;99.90
14749;DHT22;7466;53.574;9.976;2023-04-25T13:40:51;11.80;99.90
14749;DHT22;7466;53.574;9.976;2023-04-25T13:43:19;13.90;99.90
14749;DHT22;7466;53.574;9.976;2023-04-25T13:45:47;14.70;99.90
14749;DHT22;7466;53.574;9.976;2023-04-25T13:48:14;15.10;99.90
14749;DHT22;7466;53.574;9.976;2023-04-25T13:50:41;13.90;99.90
14749;DHT22;7466;53.574;9.976;2023-04-25T13:53:08;11.70;99.90
14749;DHT22;7466;53.574;9.976;2023-04-25T13:55:36;10.20;99.90
14749;DHT22;7466;53.574;9.976;2023-04-25T13:58:04;8.80;99.90
14749;DHT22;7466;53.574;9.976;2023-04-25T14:00:34;8.30;99.90
14749;DHT22;7466;53.574;9.976;2023-04-25T14:03:01;7.90;99.90
14749;DHT22;7466;53.574;9.976;2023-04-25T14:05:32;7.90;99.90
14749;DHT22;7466;53.574;9.976;2023-04-25T14:08:04;7.90;99.90
14749;DHT22;7466;53.574;9.976;2023-04-25T14:10:30;8.00;99.90
14749;DHT22;7466;53.574;9.976;2023-04-25T14:12:59;8.20;99.90
14749;DHT22;7466;53.574;9.976;2023-04-25T14:15:32;8.50;99.90
14749;DHT22;7466;53.574;9.976;2023-04-25T14:17:59;9.10;99.90
14749;DHT22;7466;53.574;9.976;2023-04-25T14:20:26;10.50;99.90
14749;DHT22;7466;53.574;9.976;2023-04-25T14:22:54;12.30;99.90
14749;DHT22;7466;53.574;9.976;2023-04-25T14:25:21;14.30;99.90
14749;DHT22;7466;53.574;9.976;2023-04-25T14:27:48;15.50;99.90
14749;DHT22;7466;53.574;9.976;2023-04-25T14:30:17;14.10;99.90
14749;DHT22;7466;53.574;9.976;2023-04-25T14:32:44;13.10;99.90
14749;DHT22;7466;53.574;9.976;2023-04-25T14:35:12;11.50;99.90
14749;DHT22;7466;53.574;9.976;2023-04-25T14:37:39;10.90;99.90
14749;DHT22;7466;53.574;9.976;2023-04-25T14:40:07;10.80;99.90
14749;DHT22;7466;53.574;9.976;2023-04-25T14:42:39;10.70;99.90
14749;DHT22;7466;53.574;9.976;2023-04-25T14:45:07;10.50;99.90
14749;DHT22;7466;53.574;9.976;2023-04-25T14:47:37;10.50;99.90
14749;DHT22;7466;53.574;9.976;2023-04-25T14:50:06;10.50;99.90
14749;DHT22;7466;53.574;9.976;2023-04-25T14:52:34;10.50;99.90
14749;DHT22;7466;53.574;9.976;2023-04-25T14:55:03;10.10;99.90
14749;DHT22;7466;53.574;9.976;2023-04-25T14:57:38;10.00;99.90
14749;DHT22;7466;53.574;9.976;2023-04-25T15:00:08;9.80;99.90
14749;DHT22;7466;53.574;9.976;2023-04-25T15:02:36;10.00;99.90
14749;DHT22;7466;53.574;9.976;2023-04-25T15:05:04;9.90;99.90
14749;DHT22;7466;53.574;9.976;2023-04-25T15:07:31;9.70;99.90
14749;DHT22;7466;53.574;9.976;2023-04-25T15:10:00;9.40;99.90
14749;DHT22;7466;53.574;9.976;2023-04-25T15:12:28;9.10;99.90
14749;DHT22;7466;53.574;9.976;2023-04-25T15:14:55;9.40;99.90
14749;DHT22;7466;53.574;9.976;2023-04-25T15:17:23;9.60;99.90
14749;DHT22;7466;53.574;9.976;2023-04-25T15:19:52;9.90;99.90
14749;DHT22;7466;53.574;9.976;2023-04-25T15:22:20;10.30;99.90
14749;DHT22;7466;53.574;9.976;2023-04-25T15:24:47;10.30;99.90
14749;DHT22;7466;53.574;9.976;2023-04-25T15:27:23;10.30;99.90
14749;DHT22;7466;53.574;9.976;2023-04-25T15:29:52;10.30;99.90
14749;DHT22;7466;53.574;9.976;2023-04-25T15:32:19;10.10;99.90
14749;DHT22;7466;53.574;9.976;2023-04-25T15:34:46;10.00;99.90
14749;DHT22;7466;53.574;9.976;2023-04-25T15:37:20;9.80;99.90
14749;DHT22;7466;53.574;9.976;2023-04-25T15:39:47;9.90;99.90
14749;DHT22;7466;53.574;9.976;2023-04-25T15:42:17;9.80;99.90
14749;DHT22;7466;53.574;9.976;2023-04-25T15:44:45;9.80;99.90
14749;DHT22;7466;53.574;9.976;2023-04-25T15:47:12;9.50;99.90
14749;DHT22;7466;53.574;9.976;2023-04-25T15:49:39;9.50;99.90
14749;DHT22;7466;53.574;9.976;2023-04-25T15:52:06;9.50;99.90
14749;DHT22;7466;53.574;9.976;2023-04-25T15:54:34;9.70;99.90
14749;DHT22;7466;53.574;9.976;2023-04-25T15:57:01;9.80;99.90
14749;DHT22;7466;53.574;9.976;2023-04-25T15:59:29;9.70;99.90
14749;DHT22;7466;53.574;9.976;2023-04-25T16:01:56;9.50;99.90
14749;DHT22;7466;53.574;9.976;2023-04-25T16:04:23;9.60;99.90
14749;DHT22;7466;53.574;9.976;2023-04-25T16:06:51;9.70;99.90
14749;DHT22;7466;53.574;9.976;2023-04-25T16:09:19;9.60;99.90